sensor_id;sensor_type;location;lat;lon;timestamp;temperature;humidity
7384;DHT22;3733;47.994;8.820;2023-11-19T00:01:36;6.20;99.90
7384;DHT22;3733;47.994;8.820;2023-11-19T00:04:02;6.20;99.90
7384;DHT22;3733;47.994;8.820;2023-11-19T00:06:30;6.20;99.90
7384;DHT22;3733;47.994;8.820;2023-11-19T00:08:55;6.20;99.90
7384;DHT22;3733;47.994;8.820;2023-11-19T00:11:21;6.20;99.90
7384;DHT22;3733;47.994;8.820;2023-11-19T00:13:47;6.20;99.90
7384;DHT22;3733;47.994;8.820;2023-11-19T00:16:12;6.30;99.90
7384;DHT22;3733;47.994;8.820;2023-11-19T00:18:38;6.30;99.90
7384;DHT22;3733;47.994;8.820;2023-11-19T00:21:04;6.30;99.90
7384;DHT22;3733;47.994;8.820;2023-11-19T00:23:29;6.30;99.90
7384;DHT22;3733;47.994;8.820;2023-11-19T00:25:55;6.30;99.90
7384;DHT22;3733;47.994;8.820;2023-11-19T00:28:20;6.30;99.90
7384;DHT22;3733;47.994;8.820;2023-11-19T00:30:46;6.30;99.90
7384;DHT22;3733;47.994;8.820;2023-11-19T00:33:11;6.30;99.90
7384;DHT22;3733;47.994;8.820;2023-11-19T00:35:37;6.40;99.90
7384;DHT22;3733;47.994;8.820;2023-11-19T00:38:02;6.40;99.90
7384;DHT22;3733;47.994;8.820;2023-11-19T00:40:29;6.40;99.90
7384;DHT22;3733;47.994;8.820;2023-11-19T00:42:55;6.40;99.90
7384;DHT22;3733;47.994;8.820;2023-11-19T00:45:20;6.40;99.90
7384;DHT22;3733;47.994;8.820;2023-11-19T00:47:46;6.40;99.90
7384;DHT22;3733;47.994;8.820;2023-11-19T00:50:11;6.40;99.90
7384;DHT22;3733;47.994;8.820;2023-11-19T00:52:38;6.50;99.90
7384;DHT22;3733;47.994;8.820;2023-11-19T00:55:05;6.50;99.90
7384;DHT22;3733;47.994;8.820;2023-11-19T00:57:31;6.50;99.90
7384;DHT22;3733;47.994;8.820;2023-11-19T00:59:59;6.50;99.90
7384;DHT22;3733;47.994;8.820;2023-11-19T01:02:25;6.50;99.90
7384;DHT22;3733;47.994;8.820;2023-11-19T01:04:50;6.50;99.90
7384;DHT22;3733;47.994;8.820;2023-11-19T01:07:16;6.50;99.90
7384;DHT22;3733;47.994;8.820;2023-11-19T01:09:42;6.50;99.90
7384;DHT22;3733;47.994;8.820;2023-11-19T01:12:08;6.60;99.90
7384;DHT22;3733;47.994;8.820;2023-11-19T01:14:35;6.60;99.90
7384;DHT22;3733;47.994;8.820;2023-11-19T01:17:01;6.60;99.90
7384;DHT22;3733;47.994;8.820;2023-11-19T01:19:27;6.60;99.90
7384;DHT22;3733;47.994;8.820;2023-11-19T01:21:54;6.70;99.90
7384;DHT22;3733;47.994;8.820;2023-11-19T01:24:20;6.70;99.90
7384;DHT22;3733;47.994;8.820;2023-11-19T01:26:46;6.70;99.90
7384;DHT22;3733;47.994;8.820;2023-11-19T01:29:14;6.80;99.90
7384;DHT22;3733;47.994;8.820;2023-11-19T01:31:45;6.80;99.90
7384;DHT22;3733;47.994;8.820;2023-11-19T01:34:10;6.80;99.90
7384;DHT22;3733;47.994;8.820;2023-11-19T01:36:37;6.90;99.90
7384;DHT22;3733;47.994;8.820;2023-11-19T01:39:02;6.90;99.90
7384;DHT22;3733;47.994;8.820;2023-11-19T01:41:33;6.90;99.90
7384;DHT22;3733;47.994;8.820;2023-11-19T01:44:00;6.90;99.90
7384;DHT22;3733;47.994;8.820;2023-11-19T01:46:25;6.90;99.90
7384;DHT22;3733;47.994;8.820;2023-11-19T01:48:52;7.00;99.90
7384;DHT22;3733;47.994;8.820;2023-11-19T01:51:18;7.00;99.90
7384;DHT22;3733;47.994;8.820;2023-11-19T01:53:44;7.00;99.90
7384;DHT22;3733;47.994;8.820;2023-11-19T01:56:13;7.00;99.90
7384;DHT22;3733;47.994;8.820;2023-11-19T01:58:39;7.00;99.90
7384;DHT22;3733;47.994;8.820;2023-11-19T02:01:06;7.10;99.90
7384;DHT22;3733;47.994;8.820;2023-11-19T02:03:33;7.10;99.90
7384;DHT22;3733;47.994;8.820;2023-11-19T02:06:03;7.10;99.90
7384;DHT22;3733;47.994;8.820;2023-11-19T02:08:29;7.00;99.90
7384;DHT22;3733;47.994;8.820;2023-11-19T02:10:55;7.00;99.90
7384;DHT22;3733;47.994;8.820;2023-11-19T02:13:26;7.00;99.90
7384;DHT22;3733;47.994;8.820;2023-11-19T02:15:52;7.00;99.90
7384;DHT22;3733;47.994;8.820;2023-11-19T02:20:51;7.00;99.90
7384;DHT22;3733;47.994;8.820;2023-11-19T02:23:18;7.00;99.90
7384;DHT22;3733;47.994;8.820;2023-11-19T02:28:26;7.00;99.90
7384;DHT22;3733;47.994;8.820;2023-11-19T02:30:52;7.00;99.90
7384;DHT22;3733;47.994;8.820;2023-11-19T02:33:18;7.00;99.90
7384;DHT22;3733;47.994;8.820;2023-11-19T02:35:44;7.00;99.90
7384;DHT22;3733;47.994;8.820;2023-11-19T02:38:09;7.00;99.90
7384;DHT22;3733;47.994;8.820;2023-11-19T02:40:36;7.00;99.90
7384;DHT22;3733;47.994;8.820;2023-11-19T02:43:02;7.00;99.90
7384;DHT22;3733;47.994;8.820;2023-11-19T02:45:30;7.00;99.90
7384;DHT22;3733;47.994;8.820;2023-11-19T02:47:56;7.00;99.90
7384;DHT22;3733;47.994;8.820;2023-11-19T02:50:22;7.00;99.90
7384;DHT22;3733;47.994;8.820;2023-11-19T02:52:52;7.00;99.90
7384;DHT22;3733;47.994;8.820;2023-11-19T02:55:18;7.00;99.90
7384;DHT22;3733;47.994;8.820;2023-11-19T02:57:45;7.00;99.90
7384;DHT22;3733;47.994;8.820;2023-11-19T03:00:17;7.00;99.90
7384;DHT22;3733;47.994;8.820;2023-11-19T03:02:44;7.00;99.90
7384;DHT22;3733;47.994;8.820;2023-11-19T03:05:14;7.10;99.90
7384;DHT22;3733;47.994;8.820;2023-11-19T03:07:43;7.10;99.90
7384;DHT22;3733;47.994;8.820;2023-11-19T03:10:12;7.10;99.90
7384;DHT22;3733;47.994;8.820;2023-11-19T03:12:42;7.10;99.90
7384;DHT22;3733;47.994;8.820;2023-11-19T03:15:08;7.10;99.90
7384;DHT22;3733;47.994;8.820;2023-11-19T03:17:41;7.10;99.90
7384;DHT22;3733;47.994;8.820;2023-11-19T03:20:09;7.20;99.90
7384;DHT22;3733;47.994;8.820;2023-11-19T03:22:42;7.20;99.90
7384;DHT22;3733;47.994;8.820;2023-11-19T03:25:09;7.20;99.90
7384;DHT22;3733;47.994;8.820;2023-11-19T03:27:36;7.20;99.90
7384;DHT22;3733;47.994;8.820;2023-11-19T03:30:03;7.20;99.90
7384;DHT22;3733;47.994;8.820;2023-11-19T03:32:32;7.20;99.90
7384;DHT22;3733;47.994;8.820;2023-11-19T03:34:58;7.30;99.90
7384;DHT22;3733;47.994;8.820;2023-11-19T03:37:25;7.30;99.90
7384;DHT22;3733;47.994;8.820;2023-11-19T03:39:51;7.30;99.90
7384;DHT22;3733;47.994;8.820;2023-11-19T03:42:19;7.30;99.90
7384;DHT22;3733;47.994;8.820;2023-11-19T03:44:46;7.30;99.90
7384;DHT22;3733;47.994;8.820;2023-11-19T03:47:11;7.30;99.90
7384;DHT22;3733;47.994;8.820;2023-11-19T03:49:37;7.30;99.90
7384;DHT22;3733;47.994;8.820;2023-11-19T03:52:03;7.30;99.90
7384;DHT22;3733;47.994;8.820;2023-11-19T03:54:28;7.30;99.90
7384;DHT22;3733;47.994;8.820;2023-11-19T03:56:54;7.30;99.90
7384;DHT22;3733;47.994;8.820;2023-11-19T03:59:20;7.30;99.90
7384;DHT22;3733;47.994;8.820;2023-11-19T04:01:46;7.30;99.90
7384;DHT22;3733;47.994;8.820;2023-11-19T04:04:11;7.30;99.90
7384;DHT22;3733;47.994;8.820;2023-11-19T04:06:37;7.30;99.90
7384;DHT22;3733;47.994;8.820;2023-11-19T04:09:03;7.30;99.90
7384;DHT22;3733;47.994;8.820;2023-11-19T04:11:28;7.30;99.90
7384;DHT22;3733;47.994;8.820;2023-11-19T04:13:54;7.30;99.90
7384;DHT22;3733;47.994;8.820;2023-11-19T04:16:26;7.30;99.90
7384;DHT22;3733;47.994;8.820;2023-11-19T04:18:53;7.30;99.90
7384;DHT22;3733;47.994;8.820;2023-11-19T04:21:18;7.30;99.90
7384;DHT22;3733;47.994;8.820;2023-11-19T04:23:44;7.30;99.90
7384;DHT22;3733;47.994;8.820;2023-11-19T04:26:11;7.30;99.90
7384;DHT22;3733;47.994;8.820;2023-11-19T04:28:36;7.30;99.90
7384;DHT22;3733;47.994;8.820;2023-11-19T04:31:02;7.30;99.90
7384;DHT22;3733;47.994;8.820;2023-11-19T04:33:28;7.30;99.90
7384;DHT22;3733;47.994;8.820;2023-11-19T04:35:54;7.30;99.90
7384;DHT22;3733;47.994;8.820;2023-11-19T04:38:20;7.30;99.90
7384;DHT22;3733;47.994;8.820;2023-11-19T04:40:45;7.30;99.90
7384;DHT22;3733;47.994;8.820;2023-11-19T04:43:11;7.40;99.90
7384;DHT22;3733;47.994;8.820;2023-11-19T04:45:36;7.40;99.90
7384;DHT22;3733;47.994;8.820;2023-11-19T04:48:02;7.40;99.90
7384;DHT22;3733;47.994;8.820;2023-11-19T04:50:28;7.50;99.90
7384;DHT22;3733;47.994;8.820;2023-11-19T04:52:53;7.50;99.90
7384;DHT22;3733;47.994;8.820;2023-11-19T04:55:19;7.50;99.90
7384;DHT22;3733;47.994;8.820;2023-11-19T04:57:45;7.50;99.90
7384;DHT22;3733;47.994;8.820;2023-11-19T05:00:11;7.60;99.90
7384;DHT22;3733;47.994;8.820;2023-11-19T05:02:37;7.60;99.90
7384;DHT22;3733;47.994;8.820;2023-11-19T05:05:03;7.60;99.90
7384;DHT22;3733;47.994;8.820;2023-11-19T05:07:31;7.60;99.90
7384;DHT22;3733;47.994;8.820;2023-11-19T05:09:57;7.70;99.90
7384;DHT22;3733;47.994;8.820;2023-11-19T05:12:23;7.80;99.90
7384;DHT22;3733;47.994;8.820;2023-11-19T05:14:49;7.80;99.90
7384;DHT22;3733;47.994;8.820;2023-11-19T05:17:19;7.90;99.90
7384;DHT22;3733;47.994;8.820;2023-11-19T05:19:45;7.90;99.90
7384;DHT22;3733;47.994;8.820;2023-11-19T05:22:11;8.00;99.90
7384;DHT22;3733;47.994;8.820;2023-11-19T05:24:36;8.00;99.90
7384;DHT22;3733;47.994;8.820;2023-11-19T05:27:02;8.00;99.90
7384;DHT22;3733;47.994;8.820;2023-11-19T05:29:28;8.00;99.90
7384;DHT22;3733;47.994;8.820;2023-11-19T05:31:54;8.00;99.90
7384;DHT22;3733;47.994;8.820;2023-11-19T05:34:21;8.10;99.90
7384;DHT22;3733;47.994;8.820;2023-11-19T05:36:46;8.10;99.90
7384;DHT22;3733;47.994;8.820;2023-11-19T05:39:12;8.10;99.90
7384;DHT22;3733;47.994;8.820;2023-11-19T05:41:38;8.10;99.90
7384;DHT22;3733;47.994;8.820;2023-11-19T05:44:04;8.10;99.90
7384;DHT22;3733;47.994;8.820;2023-11-19T05:46:30;8.10;99.90
7384;DHT22;3733;47.994;8.820;2023-11-19T05:48:55;8.10;99.90
7384;DHT22;3733;47.994;8.820;2023-11-19T05:51:21;8.10;99.90
7384;DHT22;3733;47.994;8.820;2023-11-19T05:53:46;8.10;99.90
7384;DHT22;3733;47.994;8.820;2023-11-19T05:56:12;8.10;99.90
7384;DHT22;3733;47.994;8.820;2023-11-19T05:58:38;8.10;99.90
7384;DHT22;3733;47.994;8.820;2023-11-19T06:01:05;8.00;99.90
7384;DHT22;3733;47.994;8.820;2023-11-19T06:03:32;8.00;99.90
7384;DHT22;3733;47.994;8.820;2023-11-19T06:05:58;8.10;99.90
7384;DHT22;3733;47.994;8.820;2023-11-19T06:08:24;8.00;99.90
7384;DHT22;3733;47.994;8.820;2023-11-19T06:10:52;8.00;99.90
7384;DHT22;3733;47.994;8.820;2023-11-19T06:13:18;8.10;99.90
7384;DHT22;3733;47.994;8.820;2023-11-19T06:15:43;8.10;99.90
7384;DHT22;3733;47.994;8.820;2023-11-19T06:18:09;8.10;99.90
7384;DHT22;3733;47.994;8.820;2023-11-19T06:20:37;8.10;99.90
7384;DHT22;3733;47.994;8.820;2023-11-19T06:23:03;8.10;99.90
7384;DHT22;3733;47.994;8.820;2023-11-19T06:25:28;8.10;99.90
7384;DHT22;3733;47.994;8.820;2023-11-19T06:27:54;8.10;99.90
7384;DHT22;3733;47.994;8.820;2023-11-19T06:30:20;8.10;99.90
7384;DHT22;3733;47.994;8.820;2023-11-19T06:32:48;8.10;99.90
7384;DHT22;3733;47.994;8.820;2023-11-19T06:35:14;8.00;99.90
7384;DHT22;3733;47.994;8.820;2023-11-19T06:37:40;8.00;99.90
7384;DHT22;3733;47.994;8.820;2023-11-19T06:40:07;8.10;99.90
7384;DHT22;3733;47.994;8.820;2023-11-19T06:42:34;8.10;99.90
7384;DHT22;3733;47.994;8.820;2023-11-19T06:45:00;8.10;99.90
7384;DHT22;3733;47.994;8.820;2023-11-19T06:47:26;8.10;99.90
7384;DHT22;3733;47.994;8.820;2023-11-19T06:49:53;8.10;99.90
7384;DHT22;3733;47.994;8.820;2023-11-19T06:52:19;8.10;99.90
7384;DHT22;3733;47.994;8.820;2023-11-19T06:54:44;8.20;99.90
7384;DHT22;3733;47.994;8.820;2023-11-19T06:57:13;8.20;99.90
7384;DHT22;3733;47.994;8.820;2023-11-19T06:59:39;8.20;99.90
7384;DHT22;3733;47.994;8.820;2023-11-19T07:02:05;8.20;99.90
7384;DHT22;3733;47.994;8.820;2023-11-19T07:04:31;8.30;99.90
7384;DHT22;3733;47.994;8.820;2023-11-19T07:06:58;8.30;99.90
7384;DHT22;3733;47.994;8.820;2023-11-19T07:09:25;8.30;99.90
7384;DHT22;3733;47.994;8.820;2023-11-19T07:11:51;8.30;99.90
7384;DHT22;3733;47.994;8.820;2023-11-19T07:14:18;8.30;99.90
7384;DHT22;3733;47.994;8.820;2023-11-19T07:16:44;8.30;99.90
7384;DHT22;3733;47.994;8.820;2023-11-19T07:19:10;8.30;99.90
7384;DHT22;3733;47.994;8.820;2023-11-19T07:21:36;8.30;99.90
7384;DHT22;3733;47.994;8.820;2023-11-19T07:24:09;8.40;99.90
7384;DHT22;3733;47.994;8.820;2023-11-19T07:26:35;8.40;99.90
7384;DHT22;3733;47.994;8.820;2023-11-19T07:29:01;8.50;99.90
7384;DHT22;3733;47.994;8.820;2023-11-19T07:31:27;8.50;99.90
7384;DHT22;3733;47.994;8.820;2023-11-19T07:33:53;8.50;99.90
7384;DHT22;3733;47.994;8.820;2023-11-19T07:36:19;8.50;99.90
7384;DHT22;3733;47.994;8.820;2023-11-19T07:38:45;8.50;99.90
7384;DHT22;3733;47.994;8.820;2023-11-19T07:41:12;8.50;99.90
7384;DHT22;3733;47.994;8.820;2023-11-19T07:43:43;8.60;99.90
7384;DHT22;3733;47.994;8.820;2023-11-19T07:46:13;8.60;99.90
7384;DHT22;3733;47.994;8.820;2023-11-19T07:48:39;8.60;99.90
7384;DHT22;3733;47.994;8.820;2023-11-19T07:51:05;8.60;99.90
7384;DHT22;3733;47.994;8.820;2023-11-19T07:53:31;8.60;99.90
7384;DHT22;3733;47.994;8.820;2023-11-19T07:55:58;8.60;99.90
7384;DHT22;3733;47.994;8.820;2023-11-19T07:58:25;8.60;99.90
7384;DHT22;3733;47.994;8.820;2023-11-19T08:00:51;8.60;99.90
7384;DHT22;3733;47.994;8.820;2023-11-19T08:03:17;8.60;99.90
7384;DHT22;3733;47.994;8.820;2023-11-19T08:05:47;8.60;99.90
7384;DHT22;3733;47.994;8.820;2023-11-19T08:08:13;8.60;99.90
7384;DHT22;3733;47.994;8.820;2023-11-19T08:10:39;8.60;99.90
7384;DHT22;3733;47.994;8.820;2023-11-19T08:13:05;8.60;99.90
7384;DHT22;3733;47.994;8.820;2023-11-19T08:15:31;8.60;99.90
7384;DHT22;3733;47.994;8.820;2023-11-19T08:17:57;8.60;99.90
7384;DHT22;3733;47.994;8.820;2023-11-19T08:20:23;8.60;99.90
7384;DHT22;3733;47.994;8.820;2023-11-19T08:22:49;8.60;99.90
7384;DHT22;3733;47.994;8.820;2023-11-19T08:25:15;8.60;99.90
7384;DHT22;3733;47.994;8.820;2023-11-19T08:27:40;8.60;99.90
7384;DHT22;3733;47.994;8.820;2023-11-19T08:30:06;8.60;99.90
7384;DHT22;3733;47.994;8.820;2023-11-19T08:32:32;8.70;99.90
7384;DHT22;3733;47.994;8.820;2023-11-19T08:34:58;8.70;99.90
7384;DHT22;3733;47.994;8.820;2023-11-19T08:37:23;8.80;99.90
7384;DHT22;3733;47.994;8.820;2023-11-19T08:39:50;8.80;99.90
7384;DHT22;3733;47.994;8.820;2023-11-19T08:42:16;8.80;99.90
7384;DHT22;3733;47.994;8.820;2023-11-19T08:44:43;8.80;99.90
7384;DHT22;3733;47.994;8.820;2023-11-19T08:47:12;8.90;99.90
7384;DHT22;3733;47.994;8.820;2023-11-19T08:49:39;9.00;99.90
7384;DHT22;3733;47.994;8.820;2023-11-19T08:52:05;9.00;99.90
7384;DHT22;3733;47.994;8.820;2023-11-19T08:54:32;9.00;99.90
7384;DHT22;3733;47.994;8.820;2023-11-19T08:56:58;9.10;99.90
7384;DHT22;3733;47.994;8.820;2023-11-19T08:59:25;9.10;99.90
7384;DHT22;3733;47.994;8.820;2023-11-19T09:01:50;9.10;99.90
7384;DHT22;3733;47.994;8.820;2023-11-19T09:04:16;9.10;99.90
7384;DHT22;3733;47.994;8.820;2023-11-19T09:06:42;9.10;99.90
7384;DHT22;3733;47.994;8.820;2023-11-19T09:09:08;9.10;99.90
7384;DHT22;3733;47.994;8.820;2023-11-19T09:11:35;9.20;99.90
7384;DHT22;3733;47.994;8.820;2023-11-19T09:14:02;9.20;99.90
7384;DHT22;3733;47.994;8.820;2023-11-19T09:16:27;9.30;99.90
7384;DHT22;3733;47.994;8.820;2023-11-19T09:18:53;9.40;99.90
7384;DHT22;3733;47.994;8.820;2023-11-19T09:21:18;9.50;99.90
7384;DHT22;3733;47.994;8.820;2023-11-19T09:23:44;9.50;99.90
7384;DHT22;3733;47.994;8.820;2023-11-19T09:26:10;9.60;99.90
7384;DHT22;3733;47.994;8.820;2023-11-19T09:28:36;9.70;99.90
7384;DHT22;3733;47.994;8.820;2023-11-19T09:31:01;9.90;99.90
7384;DHT22;3733;47.994;8.820;2023-11-19T09:33:30;10.00;99.90
7384;DHT22;3733;47.994;8.820;2023-11-19T09:35:56;10.10;99.90
7384;DHT22;3733;47.994;8.820;2023-11-19T09:38:21;10.20;99.90
7384;DHT22;3733;47.994;8.820;2023-11-19T09:40:47;10.30;99.90
7384;DHT22;3733;47.994;8.820;2023-11-19T09:43:15;10.30;99.90
7384;DHT22;3733;47.994;8.820;2023-11-19T09:45:50;10.30;99.90
7384;DHT22;3733;47.994;8.820;2023-11-19T09:48:19;10.40;99.90
7384;DHT22;3733;47.994;8.820;2023-11-19T09:50:48;10.40;99.90
7384;DHT22;3733;47.994;8.820;2023-11-19T09:53:15;10.50;99.90
7384;DHT22;3733;47.994;8.820;2023-11-19T09:55:44;10.60;99.90
7384;DHT22;3733;47.994;8.820;2023-11-19T09:58:12;10.70;99.90
7384;DHT22;3733;47.994;8.820;2023-11-19T10:00:40;10.90;99.90
7384;DHT22;3733;47.994;8.820;2023-11-19T10:03:07;11.00;99.90
7384;DHT22;3733;47.994;8.820;2023-11-19T10:05:35;11.00;99.90
7384;DHT22;3733;47.994;8.820;2023-11-19T10:08:01;11.00;99.90
7384;DHT22;3733;47.994;8.820;2023-11-19T10:10:28;11.00;99.90
7384;DHT22;3733;47.994;8.820;2023-11-19T10:12:55;11.00;99.90
7384;DHT22;3733;47.994;8.820;2023-11-19T10:15:21;11.00;99.90
7384;DHT22;3733;47.994;8.820;2023-11-19T10:17:48;11.00;99.90
7384;DHT22;3733;47.994;8.820;2023-11-19T10:20:14;11.00;99.90
7384;DHT22;3733;47.994;8.820;2023-11-19T10:22:39;11.00;99.90
7384;DHT22;3733;47.994;8.820;2023-11-19T10:25:21;11.00;99.90
7384;DHT22;3733;47.994;8.820;2023-11-19T10:27:47;11.00;99.90
7384;DHT22;3733;47.994;8.820;2023-11-19T10:30:17;10.90;99.90
7384;DHT22;3733;47.994;8.820;2023-11-19T10:32:42;10.90;99.90
7384;DHT22;3733;47.994;8.820;2023-11-19T10:35:08;10.90;99.90
7384;DHT22;3733;47.994;8.820;2023-11-19T10:37:35;10.90;99.90
7384;DHT22;3733;47.994;8.820;2023-11-19T10:40:03;10.90;99.90
7384;DHT22;3733;47.994;8.820;2023-11-19T10:42:31;11.00;99.90
7384;DHT22;3733;47.994;8.820;2023-11-19T10:44:56;11.00;99.90
7384;DHT22;3733;47.994;8.820;2023-11-19T10:47:22;11.00;99.90
7384;DHT22;3733;47.994;8.820;2023-11-19T10:49:55;11.00;99.90
7384;DHT22;3733;47.994;8.820;2023-11-19T10:52:27;11.00;99.90
7384;DHT22;3733;47.994;8.820;2023-11-19T10:54:56;11.10;99.90
7384;DHT22;3733;47.994;8.820;2023-11-19T10:57:26;11.10;99.90
7384;DHT22;3733;47.994;8.820;2023-11-19T11:00:00;11.10;99.90
7384;DHT22;3733;47.994;8.820;2023-11-19T11:02:27;11.10;99.90
7384;DHT22;3733;47.994;8.820;2023-11-19T11:04:54;11.20;99.90
7384;DHT22;3733;47.994;8.820;2023-11-19T11:07:21;11.20;99.90
7384;DHT22;3733;47.994;8.820;2023-11-19T11:09:51;11.20;99.90
7384;DHT22;3733;47.994;8.820;2023-11-19T11:12:18;11.20;99.90
7384;DHT22;3733;47.994;8.820;2023-11-19T11:14:47;11.10;99.90
7384;DHT22;3733;47.994;8.820;2023-11-19T11:17:17;11.20;99.90
7384;DHT22;3733;47.994;8.820;2023-11-19T11:19:44;11.10;99.90
7384;DHT22;3733;47.994;8.820;2023-11-19T11:22:11;11.10;99.90
7384;DHT22;3733;47.994;8.820;2023-11-19T11:25:16;11.10;99.90
7384;DHT22;3733;47.994;8.820;2023-11-19T11:28:05;11.10;99.90
7384;DHT22;3733;47.994;8.820;2023-11-19T11:30:50;11.10;99.90
7384;DHT22;3733;47.994;8.820;2023-11-19T11:36:19;11.30;99.90
7384;DHT22;3733;47.994;8.820;2023-11-19T11:38:48;11.30;99.90
7384;DHT22;3733;47.994;8.820;2023-11-19T11:41:19;11.40;99.90
7384;DHT22;3733;47.994;8.820;2023-11-19T11:43:48;11.50;99.90
7384;DHT22;3733;47.994;8.820;2023-11-19T11:49:06;11.70;99.90
7384;DHT22;3733;47.994;8.820;2023-11-19T11:57:07;11.90;99.90
7384;DHT22;3733;47.994;8.820;2023-11-19T12:02:12;12.30;99.90
7384;DHT22;3733;47.994;8.820;2023-11-19T12:04:40;12.50;99.90
7384;DHT22;3733;47.994;8.820;2023-11-19T12:07:12;12.60;99.90
7384;DHT22;3733;47.994;8.820;2023-11-19T12:09:42;12.60;99.90
7384;DHT22;3733;47.994;8.820;2023-11-19T12:12:19;12.50;99.90
7384;DHT22;3733;47.994;8.820;2023-11-19T12:20:00;12.50;99.90
7384;DHT22;3733;47.994;8.820;2023-11-19T12:22:26;12.50;99.90
7384;DHT22;3733;47.994;8.820;2023-11-19T12:24:54;12.60;99.90
7384;DHT22;3733;47.994;8.820;2023-11-19T12:27:20;12.60;99.90
7384;DHT22;3733;47.994;8.820;2023-11-19T12:29:48;12.70;99.90
7384;DHT22;3733;47.994;8.820;2023-11-19T12:32:14;12.60;99.90
7384;DHT22;3733;47.994;8.820;2023-11-19T12:34:39;12.60;99.90
7384;DHT22;3733;47.994;8.820;2023-11-19T12:37:05;12.70;99.90
7384;DHT22;3733;47.994;8.820;2023-11-19T12:39:31;12.70;99.90
7384;DHT22;3733;47.994;8.820;2023-11-19T12:41:57;12.70;99.90
7384;DHT22;3733;47.994;8.820;2023-11-19T12:44:25;12.70;99.90
7384;DHT22;3733;47.994;8.820;2023-11-19T12:47:07;12.70;99.90
7384;DHT22;3733;47.994;8.820;2023-11-19T12:49:33;12.70;99.90
7384;DHT22;3733;47.994;8.820;2023-11-19T12:51:59;12.70;99.90
7384;DHT22;3733;47.994;8.820;2023-11-19T12:54:37;12.80;99.90
7384;DHT22;3733;47.994;8.820;2023-11-19T12:57:03;12.90;99.90
7384;DHT22;3733;47.994;8.820;2023-11-19T12:59:30;12.90;99.90
7384;DHT22;3733;47.994;8.820;2023-11-19T13:01:56;12.90;99.90
7384;DHT22;3733;47.994;8.820;2023-11-19T13:04:22;12.90;99.90
7384;DHT22;3733;47.994;8.820;2023-11-19T13:06:50;12.90;99.90
7384;DHT22;3733;47.994;8.820;2023-11-19T13:11:48;12.80;99.90
7384;DHT22;3733;47.994;8.820;2023-11-19T13:14:14;12.80;99.90
7384;DHT22;3733;47.994;8.820;2023-11-19T13:16:40;13.00;99.90
7384;DHT22;3733;47.994;8.820;2023-11-19T13:19:05;13.00;99.90
7384;DHT22;3733;47.994;8.820;2023-11-19T13:21:31;13.10;99.90
7384;DHT22;3733;47.994;8.820;2023-11-19T13:23:57;13.30;99.90
7384;DHT22;3733;47.994;8.820;2023-11-19T13:26:23;13.40;99.90
7384;DHT22;3733;47.994;8.820;2023-11-19T13:28:48;13.50;99.90
7384;DHT22;3733;47.994;8.820;2023-11-19T13:31:14;13.60;99.90
7384;DHT22;3733;47.994;8.820;2023-11-19T13:33:40;13.70;99.90
7384;DHT22;3733;47.994;8.820;2023-11-19T13:36:06;13.80;99.90
7384;DHT22;3733;47.994;8.820;2023-11-19T13:38:36;13.70;99.90
7384;DHT22;3733;47.994;8.820;2023-11-19T13:41:06;13.50;99.90
7384;DHT22;3733;47.994;8.820;2023-11-19T13:43:32;13.40;99.90
7384;DHT22;3733;47.994;8.820;2023-11-19T13:45:57;13.30;99.90
7384;DHT22;3733;47.994;8.820;2023-11-19T13:48:24;13.20;99.90
7384;DHT22;3733;47.994;8.820;2023-11-19T13:50:50;13.10;99.90
7384;DHT22;3733;47.994;8.820;2023-11-19T13:53:16;13.00;99.90
7384;DHT22;3733;47.994;8.820;2023-11-19T13:55:42;12.90;99.90
7384;DHT22;3733;47.994;8.820;2023-11-19T13:58:08;12.90;99.90
7384;DHT22;3733;47.994;8.820;2023-11-19T14:00:34;12.90;99.90
7384;DHT22;3733;47.994;8.820;2023-11-19T14:03:00;12.90;99.90
7384;DHT22;3733;47.994;8.820;2023-11-19T14:05:26;12.80;99.90
7384;DHT22;3733;47.994;8.820;2023-11-19T14:07:52;12.80;99.90
7384;DHT22;3733;47.994;8.820;2023-11-19T14:10:19;12.70;99.90
7384;DHT22;3733;47.994;8.820;2023-11-19T14:12:44;12.70;99.90
7384;DHT22;3733;47.994;8.820;2023-11-19T14:15:11;12.60;99.90
7384;DHT22;3733;47.994;8.820;2023-11-19T14:17:39;12.50;99.90
7384;DHT22;3733;47.994;8.820;2023-11-19T14:20:06;12.50;99.90
7384;DHT22;3733;47.994;8.820;2023-11-19T14:22:47;12.40;99.90
7384;DHT22;3733;47.994;8.820;2023-11-19T14:25:15;12.40;99.90
7384;DHT22;3733;47.994;8.820;2023-11-19T14:27:42;12.30;99.90
7384;DHT22;3733;47.994;8.820;2023-11-19T14:30:09;12.30;99.90
7384;DHT22;3733;47.994;8.820;2023-11-19T14:32:37;12.20;99.90
7384;DHT22;3733;47.994;8.820;2023-11-19T14:35:03;12.20;99.90
7384;DHT22;3733;47.994;8.820;2023-11-19T14:37:30;12.10;99.90
7384;DHT22;3733;47.994;8.820;2023-11-19T14:39:58;12.10;99.90
7384;DHT22;3733;47.994;8.820;2023-11-19T14:42:25;12.10;99.90
7384;DHT22;3733;47.994;8.820;2023-11-19T14:44:51;12.10;99.90
7384;DHT22;3733;47.994;8.820;2023-11-19T14:47:19;12.10;99.90
7384;DHT22;3733;47.994;8.820;2023-11-19T14:49:45;12.10;99.90
7384;DHT22;3733;47.994;8.820;2023-11-19T14:52:10;12.00;99.90
7384;DHT22;3733;47.994;8.820;2023-11-19T14:54:36;12.00;99.90
7384;DHT22;3733;47.994;8.820;2023-11-19T14:57:04;12.00;99.90
7384;DHT22;3733;47.994;8.820;2023-11-19T14:59:29;11.90;99.90
7384;DHT22;3733;47.994;8.820;2023-11-19T15:01:55;11.90;99.90
7384;DHT22;3733;47.994;8.820;2023-11-19T15:04:20;11.80;99.90
7384;DHT22;3733;47.994;8.820;2023-11-19T15:06:46;11.80;99.90
7384;DHT22;3733;47.994;8.820;2023-11-19T15:09:12;11.80;99.90
7384;DHT22;3733;47.994;8.820;2023-11-19T15:11:43;11.70;99.90
7384;DHT22;3733;47.994;8.820;2023-11-19T15:14:14;11.70;99.90
7384;DHT22;3733;47.994;8.820;2023-11-19T15:16:45;11.70;99.90
7384;DHT22;3733;47.994;8.820;2023-11-19T15:19:11;11.60;99.90
7384;DHT22;3733;47.994;8.820;2023-11-19T15:21:40;11.60;99.90
7384;DHT22;3733;47.994;8.820;2023-11-19T15:24:07;11.60;99.90
7384;DHT22;3733;47.994;8.820;2023-11-19T15:26:34;11.50;99.90
7384;DHT22;3733;47.994;8.820;2023-11-19T15:29:01;11.50;99.90
7384;DHT22;3733;47.994;8.820;2023-11-19T15:31:26;11.40;99.90
7384;DHT22;3733;47.994;8.820;2023-11-19T15:33:52;11.30;99.90
7384;DHT22;3733;47.994;8.820;2023-11-19T15:36:17;11.30;99.90
7384;DHT22;3733;47.994;8.820;2023-11-19T15:38:44;11.20;99.90
7384;DHT22;3733;47.994;8.820;2023-11-19T15:41:10;11.10;99.90
7384;DHT22;3733;47.994;8.820;2023-11-19T15:43:35;11.10;99.90
7384;DHT22;3733;47.994;8.820;2023-11-19T15:46:05;11.00;99.90
7384;DHT22;3733;47.994;8.820;2023-11-19T15:48:31;11.00;99.90
7384;DHT22;3733;47.994;8.820;2023-11-19T15:50:56;10.90;99.90
7384;DHT22;3733;47.994;8.820;2023-11-19T15:53:22;10.80;99.90
7384;DHT22;3733;47.994;8.820;2023-11-19T15:55:47;10.80;99.90
7384;DHT22;3733;47.994;8.820;2023-11-19T15:58:13;10.80;99.90
7384;DHT22;3733;47.994;8.820;2023-11-19T16:00:38;10.70;99.90
7384;DHT22;3733;47.994;8.820;2023-11-19T16:03:06;10.70;99.90
7384;DHT22;3733;47.994;8.820;2023-11-19T16:05:32;10.60;99.90
7384;DHT22;3733;47.994;8.820;2023-11-19T16:07:58;10.60;99.90
7384;DHT22;3733;47.994;8.820;2023-11-19T16:10:23;10.60;99.90
7384;DHT22;3733;47.994;8.820;2023-11-19T16:12:49;10.50;99.90
7384;DHT22;3733;47.994;8.820;2023-11-19T16:15:14;10.50;99.90
7384;DHT22;3733;47.994;8.820;2023-11-19T16:17:41;10.40;99.90
7384;DHT22;3733;47.994;8.820;2023-11-19T16:20:08;10.40;99.90
7384;DHT22;3733;47.994;8.820;2023-11-19T16:22:36;10.30;99.90
7384;DHT22;3733;47.994;8.820;2023-11-19T16:25:02;10.20;99.90
7384;DHT22;3733;47.994;8.820;2023-11-19T16:27:27;10.10;99.90
7384;DHT22;3733;47.994;8.820;2023-11-19T16:29:53;10.10;99.90
7384;DHT22;3733;47.994;8.820;2023-11-19T16:32:19;10.00;99.90
7384;DHT22;3733;47.994;8.820;2023-11-19T16:34:45;10.00;99.90
7384;DHT22;3733;47.994;8.820;2023-11-19T16:37:14;10.00;99.90